This is the latest recevied weather packets stored in our database for station/object KM4KMO-14. If no packets are shown the sender has not sent any weather packets the latest 10 day(s).
| Time | Temp. | Humidity | Pressure | Rain* | Wind** | Luminosity | Snow |
|---|---|---|---|---|---|---|---|
| 1777821147 | 15° C | 55% | 1019.5 hPa | 0 mm | - | - | - |
| 1777820248 | 14.44° C | 64% | 1019.5 hPa | 0 mm | - | - | - |
| 1777819344 | 13.33° C | 67% | 1019.3 hPa | 0 mm | - | - | - |
| 1777817544 | 11.67° C | 74% | 1019.4 hPa | 0 mm | - | - | - |
| 1777816645 | 11.11° C | 76% | 1019.3 hPa | 0 mm | - | - | - |
| 1777814845 | 10° C | 80% | 1019.2 hPa | 0 mm | - | - | - |
| 1777811245 | 7.78° C | 86% | 1019 hPa | 0 mm | - | - | - |
| 1777807644 | 6.67° C | 90% | 1018.4 hPa | 0 mm | - | - | - |
| 1777804045 | 6.67° C | 89% | 1017.8 hPa | 0 mm | - | - | - |
| 1777801345 | 7.22° C | 88% | 1017.1 hPa | 0 mm | - | - | - |
| 1777798645 | 7.78° C | 86% | 1016.7 hPa | 0 mm | - | - | - |
| 1777797744 | 7.78° C | 85% | 1016.7 hPa | 0 mm | - | - | - |
| 1777795946 | 7.78° C | 86% | 1016.5 hPa | 0 mm | - | - | - |
| 1777794145 | 8.33° C | 85% | 1016.2 hPa | 0 mm | - | - | - |
| 1777793246 | 8.33° C | 85% | 1016.3 hPa | 0 mm | - | - | - |
| 1777792346 | 8.33° C | 85% | 1016.1 hPa | 0 mm | - | - | - |
| 1777791446 | 8.33° C | 85% | 1016 hPa | 0 mm | - | - | - |
| 1777790545 | 8.89° C | 84% | 1016 hPa | 0 mm | - | - | - |
| 1777789646 | 8.89° C | 84% | 1016 hPa | 0 mm | - | - | - |
| 1777787846 | 9.44° C | 82% | 1016 hPa | 0 mm | - | - | - |
| 1777786946 | 9.44° C | 81% | 1015.8 hPa | 0 mm | - | - | - |
| 1777785146 | 9.44° C | 80% | 1015.8 hPa | 0 mm | - | - | - |
| 1777781546 | 10.56° C | 75% | 1015.3 hPa | 0 mm | - | - | - |
| 1777780646 | 10.56° C | 74% | 1015.3 hPa | 0 mm | - | - | - |
| 1777778846 | 11.67° C | 71% | 1015.2 hPa | 0 mm | - | - | - |
* Rain latest hour (hover to see other rain measurements)
** Current wind speed in m/s (hover to see current wind gust speed)